Sprague, Connecticut
Current Conditions -  °F | °C
As of 1:52 PM on Friday 24 Oct 2014 (Local Time) from KIJD Reporting Station
Overcast Overcast  
Wind Chill: 53°   Ceiling: 2300
Heat Index: 53°   Visibility: 10mi
Dew Point: 43°   Wind: 12mph
Humidity: 69%   Direction: 340°NNW
Pressure: 29.72"   Gusts: NA
Location:  41.6375°N, 72.0613°W
Report Text: KIJD 241752Z AUTO 34010KT 10SM OVC023 12/06 A2972 RMK AO2 SLP065 60001 T01170061 10117 20089 58012
Loading
Personal Weather Stations






























Interactive Weather Map
Tropical Storm Tracking
New forecast layout! Learn more

10-Day Weather Forecast

Advertisements
Track Severe Weather on mobile